sensor_id;sensor_type;location;lat;lon;timestamp;P1;durP1;ratioP1;P2;durP2;ratioP2
8594;SDS011;4335;48.860;9.198;2023-05-21T00:00:39;15.20;;;12.80;;
8594;SDS011;4335;48.860;9.198;2023-05-21T00:03:06;12.83;;;11.53;;
8594;SDS011;4335;48.860;9.198;2023-05-21T00:05:40;15.07;;;12.17;;
8594;SDS011;4335;48.860;9.198;2023-05-21T00:08:11;14.53;;;12.00;;
8594;SDS011;4335;48.860;9.198;2023-05-21T00:10:48;14.53;;;12.60;;
8594;SDS011;4335;48.860;9.198;2023-05-21T00:13:15;14.67;;;12.80;;
8594;SDS011;4335;48.860;9.198;2023-05-21T00:15:42;13.50;;;12.10;;
8594;SDS011;4335;48.860;9.198;2023-05-21T00:18:08;14.80;;;13.20;;
8594;SDS011;4335;48.860;9.198;2023-05-21T00:20:38;14.53;;;12.97;;
8594;SDS011;4335;48.860;9.198;2023-05-21T00:23:10;14.27;;;12.57;;
8594;SDS011;4335;48.860;9.198;2023-05-21T00:25:43;15.37;;;13.10;;
8594;SDS011;4335;48.860;9.198;2023-05-21T00:28:13;17.40;;;12.80;;
8594;SDS011;4335;48.860;9.198;2023-05-21T00:30:40;15.27;;;13.57;;
8594;SDS011;4335;48.860;9.198;2023-05-21T00:33:10;14.47;;;12.57;;
8594;SDS011;4335;48.860;9.198;2023-05-21T00:35:40;15.57;;;12.97;;
8594;SDS011;4335;48.860;9.198;2023-05-21T00:38:10;13.93;;;12.33;;
8594;SDS011;4335;48.860;9.198;2023-05-21T00:40:41;14.07;;;12.63;;
8594;SDS011;4335;48.860;9.198;2023-05-21T00:43:09;14.77;;;13.07;;
8594;SDS011;4335;48.860;9.198;2023-05-21T00:45:40;14.57;;;12.83;;
8594;SDS011;4335;48.860;9.198;2023-05-21T00:48:08;15.90;;;12.60;;
8594;SDS011;4335;48.860;9.198;2023-05-21T00:50:36;13.80;;;12.40;;
8594;SDS011;4335;48.860;9.198;2023-05-21T00:53:06;13.77;;;12.37;;
8594;SDS011;4335;48.860;9.198;2023-05-21T00:55:39;18.10;;;14.40;;
8594;SDS011;4335;48.860;9.198;2023-05-21T00:58:06;15.17;;;13.57;;
8594;SDS011;4335;48.860;9.198;2023-05-21T01:00:39;14.97;;;12.77;;
8594;SDS011;4335;48.860;9.198;2023-05-21T01:03:06;15.33;;;13.03;;
8594;SDS011;4335;48.860;9.198;2023-05-21T01:05:36;15.90;;;13.70;;
8594;SDS011;4335;48.860;9.198;2023-05-21T01:08:03;15.20;;;13.60;;
8594;SDS011;4335;48.860;9.198;2023-05-21T01:10:31;14.73;;;13.20;;
8594;SDS011;4335;48.860;9.198;2023-05-21T01:13:04;14.47;;;12.57;;
8594;SDS011;4335;48.860;9.198;2023-05-21T01:15:34;15.60;;;13.97;;
8594;SDS011;4335;48.860;9.198;2023-05-21T01:18:03;16.83;;;13.77;;
8594;SDS011;4335;48.860;9.198;2023-05-21T01:20:30;16.33;;;13.83;;
8594;SDS011;4335;48.860;9.198;2023-05-21T01:22:57;15.37;;;13.87;;
8594;SDS011;4335;48.860;9.198;2023-05-21T01:25:25;16.50;;;14.40;;
8594;SDS011;4335;48.860;9.198;2023-05-21T01:27:51;15.57;;;13.77;;
8594;SDS011;4335;48.860;9.198;2023-05-21T01:30:18;15.73;;;14.13;;
8594;SDS011;4335;48.860;9.198;2023-05-21T01:32:52;14.53;;;13.00;;
8594;SDS011;4335;48.860;9.198;2023-05-21T01:35:27;14.10;;;12.60;;
8594;SDS011;4335;48.860;9.198;2023-05-21T01:37:58;16.23;;;13.83;;
8594;SDS011;4335;48.860;9.198;2023-05-21T01:40:40;17.20;;;15.00;;
8594;SDS011;4335;48.860;9.198;2023-05-21T01:43:15;16.23;;;13.47;;
8594;SDS011;4335;48.860;9.198;2023-05-21T01:45:43;18.37;;;15.07;;
8594;SDS011;4335;48.860;9.198;2023-05-21T01:48:11;18.13;;;14.70;;
8594;SDS011;4335;48.860;9.198;2023-05-21T01:50:42;17.90;;;16.00;;
8594;SDS011;4335;48.860;9.198;2023-05-21T01:53:18;16.50;;;14.50;;
8594;SDS011;4335;48.860;9.198;2023-05-21T01:55:48;21.57;;;15.80;;
8594;SDS011;4335;48.860;9.198;2023-05-21T01:58:18;15.80;;;14.13;;
8594;SDS011;4335;48.860;9.198;2023-05-21T02:00:48;15.70;;;13.70;;
8594;SDS011;4335;48.860;9.198;2023-05-21T02:03:23;16.77;;;14.37;;
8594;SDS011;4335;48.860;9.198;2023-05-21T02:05:54;18.17;;;14.47;;
8594;SDS011;4335;48.860;9.198;2023-05-21T02:08:29;16.00;;;14.03;;
8594;SDS011;4335;48.860;9.198;2023-05-21T02:10:56;15.87;;;13.93;;
8594;SDS011;4335;48.860;9.198;2023-05-21T02:13:22;14.70;;;13.20;;
8594;SDS011;4335;48.860;9.198;2023-05-21T02:15:52;17.43;;;14.50;;
8594;SDS011;4335;48.860;9.198;2023-05-21T02:18:19;17.53;;;15.27;;
8594;SDS011;4335;48.860;9.198;2023-05-21T02:20:51;16.80;;;15.07;;
8594;SDS011;4335;48.860;9.198;2023-05-21T02:23:18;15.83;;;14.07;;
8594;SDS011;4335;48.860;9.198;2023-05-21T02:25:49;17.27;;;14.90;;
8594;SDS011;4335;48.860;9.198;2023-05-21T02:28:18;16.27;;;14.30;;
8594;SDS011;4335;48.860;9.198;2023-05-21T02:30:45;16.73;;;14.63;;
8594;SDS011;4335;48.860;9.198;2023-05-21T02:33:13;16.63;;;14.47;;
8594;SDS011;4335;48.860;9.198;2023-05-21T02:35:40;17.17;;;14.63;;
8594;SDS011;4335;48.860;9.198;2023-05-21T02:38:11;15.27;;;13.53;;
8594;SDS011;4335;48.860;9.198;2023-05-21T02:40:50;16.83;;;15.03;;
8594;SDS011;4335;48.860;9.198;2023-05-21T02:43:24;17.60;;;14.17;;
8594;SDS011;4335;48.860;9.198;2023-05-21T02:45:53;15.70;;;14.00;;
8594;SDS011;4335;48.860;9.198;2023-05-21T02:48:20;17.17;;;14.73;;
8594;SDS011;4335;48.860;9.198;2023-05-21T02:50:50;16.67;;;14.97;;
8594;SDS011;4335;48.860;9.198;2023-05-21T02:53:20;16.07;;;14.33;;
8594;SDS011;4335;48.860;9.198;2023-05-21T02:55:46;16.43;;;14.27;;
8594;SDS011;4335;48.860;9.198;2023-05-21T02:58:20;17.73;;;15.50;;
8594;SDS011;4335;48.860;9.198;2023-05-21T03:00:50;19.10;;;14.87;;
8594;SDS011;4335;48.860;9.198;2023-05-21T03:03:17;18.20;;;16.20;;
8594;SDS011;4335;48.860;9.198;2023-05-21T03:05:47;16.40;;;14.70;;
8594;SDS011;4335;48.860;9.198;2023-05-21T03:08:14;18.40;;;14.50;;
8594;SDS011;4335;48.860;9.198;2023-05-21T03:10:44;18.80;;;15.90;;
8594;SDS011;4335;48.860;9.198;2023-05-21T03:13:17;20.73;;;15.60;;
8594;SDS011;4335;48.860;9.198;2023-05-21T03:15:45;18.43;;;15.40;;
8594;SDS011;4335;48.860;9.198;2023-05-21T03:18:14;16.90;;;14.67;;
8594;SDS011;4335;48.860;9.198;2023-05-21T03:20:41;16.63;;;14.83;;
8594;SDS011;4335;48.860;9.198;2023-05-21T03:23:09;19.50;;;16.33;;
8594;SDS011;4335;48.860;9.198;2023-05-21T03:25:37;16.57;;;14.77;;
8594;SDS011;4335;48.860;9.198;2023-05-21T03:28:04;16.67;;;14.07;;
8594;SDS011;4335;48.860;9.198;2023-05-21T03:30:36;16.83;;;15.03;;
8594;SDS011;4335;48.860;9.198;2023-05-21T03:33:04;16.73;;;14.37;;
8594;SDS011;4335;48.860;9.198;2023-05-21T03:35:37;16.33;;;14.63;;
8594;SDS011;4335;48.860;9.198;2023-05-21T03:38:07;17.97;;;15.67;;
8594;SDS011;4335;48.860;9.198;2023-05-21T03:40:33;19.57;;;15.03;;
8594;SDS011;4335;48.860;9.198;2023-05-21T03:43:00;15.97;;;14.23;;
8594;SDS011;4335;48.860;9.198;2023-05-21T03:45:27;16.73;;;14.93;;
8594;SDS011;4335;48.860;9.198;2023-05-21T03:47:55;16.83;;;14.57;;
8594;SDS011;4335;48.860;9.198;2023-05-21T03:50:23;20.87;;;15.67;;
8594;SDS011;4335;48.860;9.198;2023-05-21T03:52:52;17.67;;;15.80;;
8594;SDS011;4335;48.860;9.198;2023-05-21T03:55:22;17.77;;;14.80;;
8594;SDS011;4335;48.860;9.198;2023-05-21T03:57:49;18.47;;;15.63;;
8594;SDS011;4335;48.860;9.198;2023-05-21T04:00:17;17.90;;;15.80;;
8594;SDS011;4335;48.860;9.198;2023-05-21T04:02:44;18.77;;;15.80;;
8594;SDS011;4335;48.860;9.198;2023-05-21T04:05:17;16.77;;;14.97;;
8594;SDS011;4335;48.860;9.198;2023-05-21T04:07:47;16.30;;;13.97;;
8594;SDS011;4335;48.860;9.198;2023-05-21T04:10:17;16.70;;;15.03;;
8594;SDS011;4335;48.860;9.198;2023-05-21T04:12:44;18.03;;;15.30;;
8594;SDS011;4335;48.860;9.198;2023-05-21T04:15:20;17.83;;;15.43;;
8594;SDS011;4335;48.860;9.198;2023-05-21T04:17:50;16.43;;;14.70;;
8594;SDS011;4335;48.860;9.198;2023-05-21T04:20:20;20.93;;;15.20;;
8594;SDS011;4335;48.860;9.198;2023-05-21T04:22:53;16.50;;;14.70;;
8594;SDS011;4335;48.860;9.198;2023-05-21T04:25:21;18.00;;;15.20;;
8594;SDS011;4335;48.860;9.198;2023-05-21T04:27:47;19.87;;;15.90;;
8594;SDS011;4335;48.860;9.198;2023-05-21T04:30:14;16.03;;;14.40;;
8594;SDS011;4335;48.860;9.198;2023-05-21T04:32:41;16.07;;;14.37;;
8594;SDS011;4335;48.860;9.198;2023-05-21T04:35:18;17.43;;;14.87;;
8594;SDS011;4335;48.860;9.198;2023-05-21T04:37:51;16.97;;;14.60;;
8594;SDS011;4335;48.860;9.198;2023-05-21T04:40:21;18.33;;;14.23;;
8594;SDS011;4335;48.860;9.198;2023-05-21T04:42:58;17.50;;;14.80;;
8594;SDS011;4335;48.860;9.198;2023-05-21T04:45:28;19.07;;;15.60;;
8594;SDS011;4335;48.860;9.198;2023-05-21T04:47:55;17.50;;;14.67;;
8594;SDS011;4335;48.860;9.198;2023-05-21T04:50:27;16.77;;;14.97;;
8594;SDS011;4335;48.860;9.198;2023-05-21T04:53:01;18.37;;;15.13;;
8594;SDS011;4335;48.860;9.198;2023-05-21T04:55:28;17.47;;;14.77;;
8594;SDS011;4335;48.860;9.198;2023-05-21T04:57:55;17.50;;;15.43;;
8594;SDS011;4335;48.860;9.198;2023-05-21T05:00:24;17.83;;;15.50;;
8594;SDS011;4335;48.860;9.198;2023-05-21T05:02:51;15.77;;;14.07;;
8594;SDS011;4335;48.860;9.198;2023-05-21T05:05:21;16.40;;;14.33;;
8594;SDS011;4335;48.860;9.198;2023-05-21T05:07:47;16.90;;;14.83;;
8594;SDS011;4335;48.860;9.198;2023-05-21T05:10:15;21.93;;;16.67;;
8594;SDS011;4335;48.860;9.198;2023-05-21T05:12:45;17.73;;;14.87;;
8594;SDS011;4335;48.860;9.198;2023-05-21T05:15:16;15.33;;;13.80;;
8594;SDS011;4335;48.860;9.198;2023-05-21T05:17:42;17.17;;;15.37;;
8594;SDS011;4335;48.860;9.198;2023-05-21T05:20:09;16.33;;;14.27;;
8594;SDS011;4335;48.860;9.198;2023-05-21T05:22:36;16.97;;;14.97;;
8594;SDS011;4335;48.860;9.198;2023-05-21T05:25:03;17.17;;;15.00;;
8594;SDS011;4335;48.860;9.198;2023-05-21T05:27:31;16.93;;;14.53;;
8594;SDS011;4335;48.860;9.198;2023-05-21T05:30:08;16.97;;;14.70;;
8594;SDS011;4335;48.860;9.198;2023-05-21T05:32:35;19.80;;;14.87;;
8594;SDS011;4335;48.860;9.198;2023-05-21T05:35:02;16.90;;;14.70;;
8594;SDS011;4335;48.860;9.198;2023-05-21T05:37:34;15.47;;;13.83;;
8594;SDS011;4335;48.860;9.198;2023-05-21T05:40:01;16.80;;;14.80;;
8594;SDS011;4335;48.860;9.198;2023-05-21T05:42:29;18.53;;;14.40;;
8594;SDS011;4335;48.860;9.198;2023-05-21T05:44:59;16.37;;;14.60;;
8594;SDS011;4335;48.860;9.198;2023-05-21T05:47:26;15.40;;;13.73;;
8594;SDS011;4335;48.860;9.198;2023-05-21T05:49:53;15.77;;;13.80;;
8594;SDS011;4335;48.860;9.198;2023-05-21T05:52:19;17.83;;;14.80;;
8594;SDS011;4335;48.860;9.198;2023-05-21T05:54:49;18.17;;;13.57;;
8594;SDS011;4335;48.860;9.198;2023-05-21T05:57:16;15.90;;;14.23;;
8594;SDS011;4335;48.860;9.198;2023-05-21T06:02:28;15.47;;;13.87;;
8594;SDS011;4335;48.860;9.198;2023-05-21T06:05:01;15.10;;;13.47;;
8594;SDS011;4335;48.860;9.198;2023-05-21T06:07:31;15.67;;;13.97;;
8594;SDS011;4335;48.860;9.198;2023-05-21T06:09:58;16.77;;;14.43;;
8594;SDS011;4335;48.860;9.198;2023-05-21T06:12:28;14.77;;;12.93;;
8594;SDS011;4335;48.860;9.198;2023-05-21T06:14:54;14.73;;;13.23;;
8594;SDS011;4335;48.860;9.198;2023-05-21T06:17:22;15.47;;;13.83;;
8594;SDS011;4335;48.860;9.198;2023-05-21T06:19:52;14.40;;;13.00;;
8594;SDS011;4335;48.860;9.198;2023-05-21T06:22:19;15.83;;;13.73;;
8594;SDS011;4335;48.860;9.198;2023-05-21T06:24:46;14.43;;;12.93;;
8594;SDS011;4335;48.860;9.198;2023-05-21T06:27:15;14.40;;;12.63;;
8594;SDS011;4335;48.860;9.198;2023-05-21T06:29:45;15.70;;;13.73;;
8594;SDS011;4335;48.860;9.198;2023-05-21T06:32:12;14.50;;;13.07;;
8594;SDS011;4335;48.860;9.198;2023-05-21T06:34:42;14.93;;;13.43;;
8594;SDS011;4335;48.860;9.198;2023-05-21T06:37:08;15.03;;;13.53;;
8594;SDS011;4335;48.860;9.198;2023-05-21T06:39:41;14.87;;;13.37;;
8594;SDS011;4335;48.860;9.198;2023-05-21T06:42:07;14.97;;;13.20;;
8594;SDS011;4335;48.860;9.198;2023-05-21T06:44:34;14.33;;;12.93;;
8594;SDS011;4335;48.860;9.198;2023-05-21T06:47:01;15.43;;;12.77;;
8594;SDS011;4335;48.860;9.198;2023-05-21T06:49:31;16.13;;;14.43;;
8594;SDS011;4335;48.860;9.198;2023-05-21T06:52:01;13.67;;;12.27;;
8594;SDS011;4335;48.860;9.198;2023-05-21T06:54:28;15.80;;;13.33;;
8594;SDS011;4335;48.860;9.198;2023-05-21T06:56:55;14.53;;;12.37;;
8594;SDS011;4335;48.860;9.198;2023-05-21T06:59:22;13.10;;;11.80;;
8594;SDS011;4335;48.860;9.198;2023-05-21T07:01:55;13.13;;;11.83;;
8594;SDS011;4335;48.860;9.198;2023-05-21T07:04:27;14.30;;;12.87;;
8594;SDS011;4335;48.860;9.198;2023-05-21T07:06:54;13.13;;;11.80;;
8594;SDS011;4335;48.860;9.198;2023-05-21T07:09:28;14.60;;;13.23;;
8594;SDS011;4335;48.860;9.198;2023-05-21T07:12:05;12.60;;;11.17;;
8594;SDS011;4335;48.860;9.198;2023-05-21T07:14:32;13.63;;;12.05;;
8594;SDS011;4335;48.860;9.198;2023-05-21T07:17:02;12.27;;;11.18;;
8594;SDS011;4335;48.860;9.198;2023-05-21T07:19:32;13.27;;;12.02;;
8594;SDS011;4335;48.860;9.198;2023-05-21T07:22:08;13.70;;;12.32;;
8594;SDS011;4335;48.860;9.198;2023-05-21T07:24:40;12.13;;;10.93;;
8594;SDS011;4335;48.860;9.198;2023-05-21T07:27:07;15.05;;;13.23;;
8594;SDS011;4335;48.860;9.198;2023-05-21T07:29:33;12.35;;;10.70;;
8594;SDS011;4335;48.860;9.198;2023-05-21T07:32:01;12.77;;;11.48;;
8594;SDS011;4335;48.860;9.198;2023-05-21T07:34:28;14.18;;;12.88;;
8594;SDS011;4335;48.860;9.198;2023-05-21T07:36:55;13.07;;;11.88;;
8594;SDS011;4335;48.860;9.198;2023-05-21T07:39:22;12.10;;;11.00;;
8594;SDS011;4335;48.860;9.198;2023-05-21T07:41:49;10.93;;;9.93;;
8594;SDS011;4335;48.860;9.198;2023-05-21T07:44:28;12.93;;;11.52;;
8594;SDS011;4335;48.860;9.198;2023-05-21T07:46:58;10.48;;;9.55;;
8594;SDS011;4335;48.860;9.198;2023-05-21T07:49:25;11.88;;;10.88;;
8594;SDS011;4335;48.860;9.198;2023-05-21T07:51:58;10.15;;;9.23;;
8594;SDS011;4335;48.860;9.198;2023-05-21T07:54:31;10.05;;;9.15;;
8594;SDS011;4335;48.860;9.198;2023-05-21T07:56:59;10.00;;;9.00;;
8594;SDS011;4335;48.860;9.198;2023-05-21T07:59:27;10.73;;;9.70;;
8594;SDS011;4335;48.860;9.198;2023-05-21T08:01:54;10.02;;;9.05;;
8594;SDS011;4335;48.860;9.198;2023-05-21T08:04:23;11.07;;;10.07;;
8594;SDS011;4335;48.860;9.198;2023-05-21T08:06:53;10.90;;;9.90;;
8594;SDS011;4335;48.860;9.198;2023-05-21T08:09:20;9.38;;;8.55;;
8594;SDS011;4335;48.860;9.198;2023-05-21T08:11:47;9.13;;;8.32;;
8594;SDS011;4335;48.860;9.198;2023-05-21T08:14:14;9.40;;;8.60;;
8594;SDS011;4335;48.860;9.198;2023-05-21T08:16:44;9.43;;;8.52;;
8594;SDS011;4335;48.860;9.198;2023-05-21T08:19:14;9.38;;;8.57;;
8594;SDS011;4335;48.860;9.198;2023-05-21T08:21:41;9.85;;;8.85;;
8594;SDS011;4335;48.860;9.198;2023-05-21T08:24:10;9.05;;;8.35;;
8594;SDS011;4335;48.860;9.198;2023-05-21T08:26:39;10.45;;;9.45;;
8594;SDS011;4335;48.860;9.198;2023-05-21T08:29:09;10.45;;;9.45;;
8594;SDS011;4335;48.860;9.198;2023-05-21T08:31:37;10.00;;;9.07;;
8594;SDS011;4335;48.860;9.198;2023-05-21T08:34:25;8.20;;;7.50;;
8594;SDS011;4335;48.860;9.198;2023-05-21T08:36:52;8.82;;;8.07;;
8594;SDS011;4335;48.860;9.198;2023-05-21T08:39:21;9.35;;;8.45;;
8594;SDS011;4335;48.860;9.198;2023-05-21T08:41:48;9.85;;;9.05;;
8594;SDS011;4335;48.860;9.198;2023-05-21T08:44:26;9.30;;;8.30;;
8594;SDS011;4335;48.860;9.198;2023-05-21T08:47:03;9.80;;;8.90;;
8594;SDS011;4335;48.860;9.198;2023-05-21T08:49:32;9.60;;;8.85;;
8594;SDS011;4335;48.860;9.198;2023-05-21T08:52:03;9.02;;;8.07;;
8594;SDS011;4335;48.860;9.198;2023-05-21T08:54:31;9.35;;;8.55;;
8594;SDS011;4335;48.860;9.198;2023-05-21T08:56:58;8.77;;;8.00;;
8594;SDS011;4335;48.860;9.198;2023-05-21T08:59:29;8.85;;;8.05;;
8594;SDS011;4335;48.860;9.198;2023-05-21T09:01:56;8.45;;;7.75;;
8594;SDS011;4335;48.860;9.198;2023-05-21T09:04:27;8.70;;;7.82;;
8594;SDS011;4335;48.860;9.198;2023-05-21T09:07:02;8.57;;;7.70;;
8594;SDS011;4335;48.860;9.198;2023-05-21T09:09:31;8.63;;;7.93;;
8594;SDS011;4335;48.860;9.198;2023-05-21T09:11:59;7.82;;;7.07;;
8594;SDS011;4335;48.860;9.198;2023-05-21T09:14:25;7.90;;;7.20;;
8594;SDS011;4335;48.860;9.198;2023-05-21T09:16:53;8.48;;;7.65;;
8594;SDS011;4335;48.860;9.198;2023-05-21T09:19:29;8.02;;;7.32;;
8594;SDS011;4335;48.860;9.198;2023-05-21T09:22:00;8.95;;;8.05;;
8594;SDS011;4335;48.860;9.198;2023-05-21T09:24:29;7.80;;;7.10;;
8594;SDS011;4335;48.860;9.198;2023-05-21T09:27:05;8.40;;;7.65;;
8594;SDS011;4335;48.860;9.198;2023-05-21T09:29:35;8.32;;;7.38;;
8594;SDS011;4335;48.860;9.198;2023-05-21T09:32:04;8.30;;;7.60;;
8594;SDS011;4335;48.860;9.198;2023-05-21T09:34:35;8.15;;;7.35;;
8594;SDS011;4335;48.860;9.198;2023-05-21T09:37:01;7.88;;;7.15;;
8594;SDS011;4335;48.860;9.198;2023-05-21T09:39:31;8.27;;;7.55;;
8594;SDS011;4335;48.860;9.198;2023-05-21T09:42:01;8.75;;;7.70;;
8594;SDS011;4335;48.860;9.198;2023-05-21T09:44:32;8.32;;;7.45;;
8594;SDS011;4335;48.860;9.198;2023-05-21T09:47:00;8.95;;;8.05;;
8594;SDS011;4335;48.860;9.198;2023-05-21T09:49:27;9.13;;;7.80;;
8594;SDS011;4335;48.860;9.198;2023-05-21T09:52:02;8.27;;;7.47;;
8594;SDS011;4335;48.860;9.198;2023-05-21T09:54:30;7.78;;;7.07;;
8594;SDS011;4335;48.860;9.198;2023-05-21T09:57:02;9.95;;;8.95;;
8594;SDS011;4335;48.860;9.198;2023-05-21T09:59:35;7.72;;;7.13;;
8594;SDS011;4335;48.860;9.198;2023-05-21T10:02:04;7.63;;;6.82;;
8594;SDS011;4335;48.860;9.198;2023-05-21T10:04:42;8.35;;;7.57;;
8594;SDS011;4335;48.860;9.198;2023-05-21T10:07:16;7.47;;;6.88;;
8594;SDS011;4335;48.860;9.198;2023-05-21T10:09:45;7.85;;;7.18;;
8594;SDS011;4335;48.860;9.198;2023-05-21T10:12:13;6.95;;;6.35;;
8594;SDS011;4335;48.860;9.198;2023-05-21T10:14:42;6.82;;;6.22;;
8594;SDS011;4335;48.860;9.198;2023-05-21T10:17:16;8.27;;;7.50;;
8594;SDS011;4335;48.860;9.198;2023-05-21T10:19:43;7.60;;;6.90;;
8594;SDS011;4335;48.860;9.198;2023-05-21T10:22:12;7.72;;;6.68;;
8594;SDS011;4335;48.860;9.198;2023-05-21T10:24:49;7.63;;;6.93;;
8594;SDS011;4335;48.860;9.198;2023-05-21T10:27:23;8.15;;;6.38;;
8594;SDS011;4335;48.860;9.198;2023-05-21T10:29:54;7.22;;;6.15;;
8594;SDS011;4335;48.860;9.198;2023-05-21T10:32:23;6.63;;;6.03;;
8594;SDS011;4335;48.860;9.198;2023-05-21T10:34:52;7.07;;;6.47;;
8594;SDS011;4335;48.860;9.198;2023-05-21T10:37:20;6.53;;;5.88;;
8594;SDS011;4335;48.860;9.198;2023-05-21T10:39:53;6.97;;;6.28;;
8594;SDS011;4335;48.860;9.198;2023-05-21T10:42:25;6.60;;;5.90;;
8594;SDS011;4335;48.860;9.198;2023-05-21T10:45:14;7.88;;;6.55;;
8594;SDS011;4335;48.860;9.198;2023-05-21T10:48:03;6.80;;;6.20;;
8594;SDS011;4335;48.860;9.198;2023-05-21T10:50:43;7.32;;;6.68;;
8594;SDS011;4335;48.860;9.198;2023-05-21T10:53:31;7.82;;;7.07;;
8594;SDS011;4335;48.860;9.198;2023-05-21T10:56:10;7.45;;;6.75;;
8594;SDS011;4335;48.860;9.198;2023-05-21T10:58:56;6.75;;;6.15;;
8594;SDS011;4335;48.860;9.198;2023-05-21T11:01:42;7.05;;;6.35;;
8594;SDS011;4335;48.860;9.198;2023-05-21T11:04:12;7.43;;;6.72;;
8594;SDS011;4335;48.860;9.198;2023-05-21T11:06:40;6.90;;;6.30;;
8594;SDS011;4335;48.860;9.198;2023-05-21T11:09:15;6.93;;;6.22;;
8594;SDS011;4335;48.860;9.198;2023-05-21T11:11:44;7.85;;;7.10;;
8594;SDS011;4335;48.860;9.198;2023-05-21T11:14:27;8.32;;;6.85;;
8594;SDS011;4335;48.860;9.198;2023-05-21T11:16:59;6.97;;;6.35;;
8594;SDS011;4335;48.860;9.198;2023-05-21T11:19:36;6.93;;;6.22;;
8594;SDS011;4335;48.860;9.198;2023-05-21T11:22:08;7.00;;;6.30;;
8594;SDS011;4335;48.860;9.198;2023-05-21T11:24:45;6.57;;;5.97;;
8594;SDS011;4335;48.860;9.198;2023-05-21T11:27:29;7.25;;;6.43;;
8594;SDS011;4335;48.860;9.198;2023-05-21T11:29:58;7.63;;;6.72;;
8594;SDS011;4335;48.860;9.198;2023-05-21T11:32:28;7.55;;;6.85;;
8594;SDS011;4335;48.860;9.198;2023-05-21T11:34:58;7.72;;;6.75;;
8594;SDS011;4335;48.860;9.198;2023-05-21T11:37:29;6.53;;;5.93;;
8594;SDS011;4335;48.860;9.198;2023-05-21T11:43:08;6.93;;;6.23;;
8594;SDS011;4335;48.860;9.198;2023-05-21T11:45:45;8.55;;;7.30;;
8594;SDS011;4335;48.860;9.198;2023-05-21T11:48:15;5.88;;;5.32;;
8594;SDS011;4335;48.860;9.198;2023-05-21T11:50:43;7.35;;;6.65;;
8594;SDS011;4335;48.860;9.198;2023-05-21T11:53:14;6.90;;;6.30;;
8594;SDS011;4335;48.860;9.198;2023-05-21T11:55:42;7.30;;;6.60;;
8594;SDS011;4335;48.860;9.198;2023-05-21T11:58:18;8.45;;;7.00;;
8594;SDS011;4335;48.860;9.198;2023-05-21T12:00:46;10.50;;;9.40;;
8594;SDS011;4335;48.860;9.198;2023-05-21T12:03:20;9.13;;;8.27;;
8594;SDS011;4335;48.860;9.198;2023-05-21T12:05:50;8.00;;;7.28;;
8594;SDS011;4335;48.860;9.198;2023-05-21T12:08:20;7.07;;;6.35;;
8594;SDS011;4335;48.860;9.198;2023-05-21T12:10:54;7.65;;;6.43;;
8594;SDS011;4335;48.860;9.198;2023-05-21T12:13:27;8.05;;;6.47;;
8594;SDS011;4335;48.860;9.198;2023-05-21T12:15:59;6.40;;;5.80;;
8594;SDS011;4335;48.860;9.198;2023-05-21T12:18:27;6.13;;;5.43;;
8594;SDS011;4335;48.860;9.198;2023-05-21T12:21:03;6.28;;;5.68;;
8594;SDS011;4335;48.860;9.198;2023-05-21T12:23:34;6.50;;;5.57;;
8594;SDS011;4335;48.860;9.198;2023-05-21T12:26:02;5.93;;;5.30;;
8594;SDS011;4335;48.860;9.198;2023-05-21T12:28:31;6.78;;;6.18;;
8594;SDS011;4335;48.860;9.198;2023-05-21T12:31:05;6.03;;;5.53;;
8594;SDS011;4335;48.860;9.198;2023-05-21T12:33:33;6.72;;;6.13;;
8594;SDS011;4335;48.860;9.198;2023-05-21T12:36:00;6.63;;;5.90;;
8594;SDS011;4335;48.860;9.198;2023-05-21T12:38:29;7.07;;;6.13;;
8594;SDS011;4335;48.860;9.198;2023-05-21T12:41:05;6.05;;;5.45;;
8594;SDS011;4335;48.860;9.198;2023-05-21T12:43:34;6.25;;;5.65;;
8594;SDS011;4335;48.860;9.198;2023-05-21T12:46:01;6.57;;;5.97;;
8594;SDS011;4335;48.860;9.198;2023-05-21T12:48:47;7.90;;;5.90;;
8594;SDS011;4335;48.860;9.198;2023-05-21T12:51:15;6.05;;;5.53;;
8594;SDS011;4335;48.860;9.198;2023-05-21T12:53:43;6.03;;;5.53;;
8594;SDS011;4335;48.860;9.198;2023-05-21T12:56:10;6.68;;;5.97;;
8594;SDS011;4335;48.860;9.198;2023-05-21T12:58:46;6.57;;;5.97;;
8594;SDS011;4335;48.860;9.198;2023-05-21T13:01:20;6.00;;;5.40;;
8594;SDS011;4335;48.860;9.198;2023-05-21T13:03:47;6.57;;;5.55;;
8594;SDS011;4335;48.860;9.198;2023-05-21T13:06:21;6.57;;;5.85;;
8594;SDS011;4335;48.860;9.198;2023-05-21T13:08:53;6.20;;;5.60;;
8594;SDS011;4335;48.860;9.198;2023-05-21T13:11:24;7.40;;;5.65;;
8594;SDS011;4335;48.860;9.198;2023-05-21T13:13:53;5.95;;;5.43;;
8594;SDS011;4335;48.860;9.198;2023-05-21T13:16:23;6.50;;;5.60;;
8594;SDS011;4335;48.860;9.198;2023-05-21T13:18:51;6.38;;;5.68;;
8594;SDS011;4335;48.860;9.198;2023-05-21T13:21:18;6.35;;;5.75;;
8594;SDS011;4335;48.860;9.198;2023-05-21T13:23:45;7.32;;;6.63;;
8594;SDS011;4335;48.860;9.198;2023-05-21T13:26:18;7.07;;;6.38;;
8594;SDS011;4335;48.860;9.198;2023-05-21T13:28:48;6.03;;;5.53;;
8594;SDS011;4335;48.860;9.198;2023-05-21T13:31:27;7.00;;;5.60;;
8594;SDS011;4335;48.860;9.198;2023-05-21T13:33:57;6.40;;;5.80;;
8594;SDS011;4335;48.860;9.198;2023-05-21T13:36:26;6.13;;;5.45;;
8594;SDS011;4335;48.860;9.198;2023-05-21T13:38:54;6.70;;;6.10;;
8594;SDS011;4335;48.860;9.198;2023-05-21T13:41:21;6.40;;;5.80;;
8594;SDS011;4335;48.860;9.198;2023-05-21T13:43:49;6.57;;;5.88;;
8594;SDS011;4335;48.860;9.198;2023-05-21T13:46:16;6.75;;;6.15;;
8594;SDS011;4335;48.860;9.198;2023-05-21T13:48:45;5.55;;;4.82;;
8594;SDS011;4335;48.860;9.198;2023-05-21T13:51:13;6.03;;;5.43;;
8594;SDS011;4335;48.860;9.198;2023-05-21T13:53:40;6.35;;;5.60;;
8594;SDS011;4335;48.860;9.198;2023-05-21T13:56:14;6.95;;;6.25;;
8594;SDS011;4335;48.860;9.198;2023-05-21T13:58:41;5.80;;;5.13;;
8594;SDS011;4335;48.860;9.198;2023-05-21T14:01:08;6.45;;;5.28;;
8594;SDS011;4335;48.860;9.198;2023-05-21T14:03:39;6.50;;;5.90;;
8594;SDS011;4335;48.860;9.198;2023-05-21T14:06:08;6.38;;;5.78;;
8594;SDS011;4335;48.860;9.198;2023-05-21T14:08:35;5.90;;;5.40;;
8594;SDS011;4335;48.860;9.198;2023-05-21T14:11:04;5.93;;;5.35;;
8594;SDS011;4335;48.860;9.198;2023-05-21T14:13:31;5.18;;;4.78;;
8594;SDS011;4335;48.860;9.198;2023-05-21T14:16:01;5.22;;;4.72;;
8594;SDS011;4335;48.860;9.198;2023-05-21T14:18:29;5.65;;;5.15;;
8594;SDS011;4335;48.860;9.198;2023-05-21T14:20:56;5.38;;;4.88;;
8594;SDS011;4335;48.860;9.198;2023-05-21T14:23:34;5.63;;;5.13;;
8594;SDS011;4335;48.860;9.198;2023-05-21T14:26:05;5.03;;;4.63;;
8594;SDS011;4335;48.860;9.198;2023-05-21T14:28:35;5.80;;;5.10;;
8594;SDS011;4335;48.860;9.198;2023-05-21T14:31:06;6.18;;;5.07;;
8594;SDS011;4335;48.860;9.198;2023-05-21T14:33:34;5.78;;;5.20;;
8594;SDS011;4335;48.860;9.198;2023-05-21T14:36:02;5.35;;;4.88;;
8594;SDS011;4335;48.860;9.198;2023-05-21T14:38:30;4.70;;;4.30;;
8594;SDS011;4335;48.860;9.198;2023-05-21T14:40:59;4.70;;;4.32;;
8594;SDS011;4335;48.860;9.198;2023-05-21T14:43:29;5.25;;;4.32;;
8594;SDS011;4335;48.860;9.198;2023-05-21T14:45:56;5.45;;;4.65;;
8594;SDS011;4335;48.860;9.198;2023-05-21T14:48:24;4.95;;;4.40;;
8594;SDS011;4335;48.860;9.198;2023-05-21T14:50:55;4.22;;;3.63;;
8594;SDS011;4335;48.860;9.198;2023-05-21T14:53:25;4.90;;;4.22;;
8594;SDS011;4335;48.860;9.198;2023-05-21T14:56:06;6.28;;;4.68;;
8594;SDS011;4335;48.860;9.198;2023-05-21T14:58:36;6.30;;;4.22;;
8594;SDS011;4335;48.860;9.198;2023-05-21T15:01:03;4.93;;;4.25;;
8594;SDS011;4335;48.860;9.198;2023-05-21T15:03:31;5.15;;;4.40;;
8594;SDS011;4335;48.860;9.198;2023-05-21T15:06:02;5.97;;;4.70;;
8594;SDS011;4335;48.860;9.198;2023-05-21T15:08:29;5.10;;;4.70;;
8594;SDS011;4335;48.860;9.198;2023-05-21T15:10:58;5.00;;;4.60;;
8594;SDS011;4335;48.860;9.198;2023-05-21T15:13:27;4.43;;;4.03;;
8594;SDS011;4335;48.860;9.198;2023-05-21T15:15:54;7.43;;;5.13;;
8594;SDS011;4335;48.860;9.198;2023-05-21T15:18:22;9.93;;;5.32;;
8594;SDS011;4335;48.860;9.198;2023-05-21T15:20:52;6.68;;;4.82;;
8594;SDS011;4335;48.860;9.198;2023-05-21T15:23:20;5.72;;;4.63;;